• Join FlightAware (Why Join?)
  • Login
  • US Flag 
07:24AM EDT


 

Airport Tracker/Info


-or-


 

Live Flight TrackerFlight Track Log ✈ AVN10 ✈ 02-Apr-2014 ✈ NVVV / VLI - YSSY / SYD

Flight Track Log - Related Links

Times and Time Zones

All times are in EDT time to prevent confusion due to time zone crossing. See the AVN10 flight status page for this flight to view local times or setup timezone preferences in your user account.

Time Position Orientation Groundspeed Altitude Reporting Facility
EDT Latitude Longitude Course Direction KTS MPH feet Rate Location/Type
01:12AM -18.1507 167.9203 220° Southwest  Level Estimated
01:13AM -18.2409 167.8401 220° Southwest  Level Estimated
01:14AM -18.3310 167.7599 220° Southwest  Level Estimated
01:15AM -18.4211 167.6796 220° Southwest  Level Estimated
01:16AM -18.5112 167.5992 220° Southwest  Level Estimated
01:17AM -18.6012 167.5187 220° Southwest  Level Estimated
01:18AM -18.6912 167.4381 220° Southwest  Level Estimated
01:19AM -18.7812 167.3575 220° Southwest  Level Estimated
01:20AM -18.8711 167.2767 220° Southwest  Level Estimated
01:21AM -18.9611 167.1959 220° Southwest  Level Estimated
01:22AM -19.0509 167.1150 220° Southwest  Level Estimated
01:23AM -19.1408 167.0340 220° Southwest  Level Estimated
01:24AM -19.2305 166.9529 220° Southwest  Level Estimated
01:25AM -19.3203 166.8717 220° Southwest  Level Estimated
01:26AM -19.4100 166.7905 221° Southwest  Level Estimated
01:27AM -19.4997 166.7091 221° Southwest  Level Estimated
01:28AM -19.5894 166.6277 221° Southwest  Level Estimated
01:29AM -19.6790 166.5461 221° Southwest  Level Estimated
01:30AM -19.7686 166.4645 221° Southwest  Level Estimated
01:31AM -19.8581 166.3828 221° Southwest  Level Estimated
01:32AM -19.9476 166.3010 221° Southwest  Level Estimated
01:33AM -20.0371 166.2191 221° Southwest  Level Estimated
01:34AM -20.1265 166.1371 221° Southwest  Level Estimated
01:35AM -20.2159 166.0550 221° Southwest  Level Estimated
01:36AM -20.3053 165.9728 221° Southwest  Level Estimated
01:37AM -20.3946 165.8905 221° Southwest  Level Estimated
01:38AM -20.4838 165.8081 221° Southwest  Level Estimated
01:39AM -20.5731 165.7256 221° Southwest  Level Estimated
01:40AM -20.6623 165.6431 221° Southwest  Level Estimated
01:41AM -20.7514 165.5604 221° Southwest  Level Estimated
01:42AM -20.8405 165.4776 221° Southwest  Level Estimated
01:43AM -20.9296 165.3948 221° Southwest  Level Estimated
01:44AM -21.0187 165.3118 221° Southwest  Level Estimated
01:45AM -21.1077 165.2287 221° Southwest  Level Estimated
01:46AM -21.1966 165.1456 221° Southwest  Level Estimated
01:47AM -21.2855 165.0623 221° Southwest  Level Estimated
01:48AM -21.3744 164.9790 221° Southwest  Level Estimated
01:49AM -21.4633 164.8955 221° Southwest  Level Estimated
01:50AM -21.5520 164.8119 221° Southwest  Level Estimated
01:51AM -21.6408 164.7283 221° Southwest  Level Estimated
01:52AM -21.7295 164.6445 221° Southwest  Level Estimated
01:53AM -21.8182 164.5606 221° Southwest  Level Estimated
01:54AM -21.9068 164.4767 221° Southwest  Level Estimated
01:55AM -21.9954 164.3926 221° Southwest  Level Estimated
01:56AM -22.0839 164.3084 221° Southwest  Level Estimated
01:57AM -22.1724 164.2241 221° Southwest  Level Estimated
01:58AM -22.2609 164.1397 221° Southwest  Level Estimated
01:59AM -22.3493 164.0552 221° Southwest  Level Estimated
02:00AM -22.4377 163.9706 222° Southwest  Level Estimated
02:01AM -22.5260 163.8858 222° Southwest  Level Estimated
02:02AM -22.6143 163.8010 222° Southwest  Level Estimated
02:03AM -22.7025 163.7161 222° Southwest  Level Estimated
02:04AM -22.7907 163.6310 222° Southwest  Level Estimated
02:05AM -22.8788 163.5459 222° Southwest  Level Estimated
02:06AM -22.9669 163.4606 222° Southwest  Level Estimated
02:07AM -23.0550 163.3752 222° Southwest  Level Estimated
02:08AM -23.1430 163.2897 222° Southwest  Level Estimated
02:09AM -23.2309 163.2041 222° Southwest  Level Estimated
02:10AM -23.3188 163.1184 222° Southwest  Level Estimated
02:11AM -23.4067 163.0326 222° Southwest  Level Estimated
02:12AM -23.4945 162.9467 222° Southwest  Level Estimated
02:13AM -23.5823 162.8606 222° Southwest  Level Estimated
02:14AM -23.6700 162.7744 222° Southwest  Level Estimated
02:14AM -24.2754 163.0994 220° Southwest 30,000  Level Aus ATC (Calculated)
02:16AM -24.4321 162.9311 224° Southwest  Level Estimated
02:17AM -24.5138 162.8431 224° Southwest  Level Estimated
02:17AM -24.5901 162.8019 220° Southwest 30,000  Level Aus ATC (Calculated)
02:19AM -24.7462 162.6324 225° Southwest  Level Estimated
02:19AM -24.7638 162.6367 220° Southwest 30,000  Level Aus ATC (Calculated)
02:20AM -24.8451 162.5480 225° Southwest  Level Estimated
02:20AM -24.9293 162.4788 220° Southwest 30,000  Level Aus ATC (Calculated)
02:21AM -24.9264 162.4592 225° Southwest  Level Estimated
02:21AM -24.9819 162.4285 220° Southwest 30,000  Level Aus ATC (Calculated)
02:23AM -25.1048 162.2934 225° Southwest  Level Estimated
02:23AM -25.1861 162.2326 221° Southwest 30,000  Level Aus ATC (Calculated)
02:24AM -25.2830 162.1394 221° Southwest 30,000 -60 Level Aus ATC (Calculated)
02:26AM -25.4175 161.9898 225° Southwest  Level Estimated
02:27AM -25.4981 161.8999 225° Southwest  Level Estimated
02:28AM -25.5786 161.8098 225° Southwest  Level Estimated
02:29AM -25.6591 161.7197 225° Southwest  Level Estimated
02:30AM -25.7396 161.6294 225° Southwest  Level Estimated
02:31AM -25.8200 161.5390 225° Southwest  Level Estimated
02:32AM -25.9003 161.4485 225° Southwest  Level Estimated
02:33AM -25.9806 161.3578 225° Southwest  Level Estimated
02:34AM -26.0608 161.2670 225° Southwest  Level Estimated
02:35AM -26.1410 161.1761 225° Southwest  Level Estimated
02:36AM -26.2211 161.0851 226° Southwest  Level Estimated
02:37AM -26.3011 160.9940 226° Southwest  Level Estimated
02:38AM -26.3811 160.9027 226° Southwest  Level Estimated
02:39AM -26.4610 160.8113 226° Southwest  Level Estimated
02:39AM -26.6836 160.7674 221° Southwest 30,000  Level Aus ATC (Calculated)
02:40AM -26.5409 160.7198 226° Southwest  Level Estimated
02:41AM -26.6207 160.6281 226° Southwest  Level Estimated
02:41AM -26.8810 160.5704 221° Southwest 30,000  Level Aus ATC (Calculated)
02:42AM -26.9096 160.5011 226° Southwest  Level Estimated
02:43AM -26.9883 160.4079 227° Southwest  Level Estimated
02:43AM -27.0534 160.3975 221° Southwest 30,000  Level Aus ATC (Calculated)
02:44AM -27.1061 160.3027 227° Southwest  Level Estimated
02:45AM -27.1845 160.2091 227° Southwest  Level Estimated
02:46AM -27.2777 160.1285 227° Southwest  Level Estimated
02:47AM -27.3559 160.0345 227° Southwest  Level Estimated
02:48AM -27.4339 159.9403 227° Southwest  Level Estimated
02:49AM -27.5119 159.8459 227° Southwest  Level Estimated
02:49AM -27.6552 159.7880 221° Southwest 30,000  Level Aus ATC (Calculated)
02:50AM -27.5899 159.7515 227° Southwest  Level Estimated
02:50AM -27.7630 159.6777 221° Southwest 30,000  Level Aus ATC (Calculated)
02:51AM -27.7647 159.6530 227° Southwest  Level Estimated
02:52AM -27.8419 159.5575 228° Southwest  Level Estimated
02:53AM -27.9318 159.4683 228° Southwest  Level Estimated
02:54AM -28.0147 159.3651 228° Southwest  Level Estimated
02:55AM -28.0975 159.2617 228° Southwest  Level Estimated
02:55AM -28.1929 159.2353 221° Southwest 30,000  Level Aus ATC (Calculated)
02:56AM -28.1802 159.1582 228° Southwest  Level Estimated
02:57AM -28.3258 159.0732 227° Southwest  Level FlightAware Approximate
02:58AM -28.4097 158.9706 227° Southwest  Level FlightAware Approximate
02:59AM -28.4934 158.8678 227° Southwest  Level FlightAware Approximate
03:00AM -28.5771 158.7649 227° Southwest  Level FlightAware Approximate
03:00AM -28.6210 158.7204 218° Southwest 30,000  Level Aus ATC (Calculated)
03:01AM -28.6607 158.6618 227° Southwest  Level FlightAware Approximate
03:02AM -28.7442 158.5585 227° Southwest  Level FlightAware Approximate
03:03AM -28.8377 158.4514 227° Southwest  Level FlightAware Approximate
03:04AM -28.9210 158.3477 227° Southwest  Level FlightAware Approximate
03:05AM -29.0041 158.2437 228° Southwest  Level FlightAware Approximate
03:06AM -29.0871 158.1396 228° Southwest  Level FlightAware Approximate
03:06AM -29.1482 158.0629 201° Southwest 30,000  Level Aus ATC (Calculated)
03:07AM -29.1701 158.0353 228° Southwest  Level FlightAware Approximate
03:08AM -29.2882 157.8782 229° Southwest  Level Estimated
03:09AM -29.3712 157.7737 228° Southwest  Level FlightAware Approximate
03:10AM -29.5397 157.8904 228° Southwest 435 501 28,100  Level Aus ATC (RADAR)
03:11AM -29.5369 157.5643 228° Southwest  Level FlightAware Approximate
03:12AM -29.6855 157.7305 224° Southwest 435 501 28,100  Level Aus ATC (RADAR)
03:13AM -29.8352 157.5674 223° Southwest 442 509 28,100  Level Aus ATC (RADAR)
03:15AM -29.9995 157.3853 224° Southwest 430 495 28,100  Level Aus ATC (RADAR)
03:18AM -30.2002 157.1611 224° Southwest 435 501 28,100  Level Aus ATC (RADAR)
03:20AM -30.3886 156.9500 224° Southwest 434 499 28,100  Level Aus ATC (RADAR)
03:22AM -30.5700 156.7463 224° Southwest 436 502 28,100  Level Aus ATC (RADAR)
03:24AM -30.7449 156.5501 224° Southwest 437 503 28,100  Level Aus ATC (RADAR)
03:25AM -30.8681 156.4107 224° Southwest 436 502 28,100  Level Aus ATC (RADAR)
03:27AM -30.9831 156.2798 224° Southwest 434 499 28,100  Level Aus ATC (RADAR)
03:29AM -31.1467 156.0925 224° Southwest 429 494 28,100  Level Aus ATC (RADAR)
03:29AM -31.2040 156.0276 224° Southwest 430 495 28,100 -60 Level Aus ATC (RADAR)
03:30AM -31.3105 155.9043 225° Southwest 431 496 28,000  Descending Aus ATC (RADAR)
03:31AM -31.3531 155.8551 225° Southwest 432 497 28,100  Climbing Aus ATC (RADAR)
03:33AM -31.5034 155.6833 224° Southwest 433 498 28,100  Level Aus ATC (RADAR)
03:34AM -31.6177 155.5502 225° Southwest 435 501 28,100  Level Aus ATC (RADAR)
03:35AM -31.6674 155.4924 225° Southwest 433 498 28,100 -120 Level Aus ATC (RADAR)
03:35AM -31.7402 155.4066 225° Southwest 438 504 28,000 -120 Descending FlightAware ADS-B (YPLB)
03:36AM -31.7890 155.3502 224° Southwest 439 505 28,000  Level FlightAware ADS-B (YPLB)
03:37AM -31.8407 155.2906 224° Southwest 440 506 28,000  Level FlightAware ADS-B (YPLB)
03:37AM -31.9134 155.2042 225° Southwest 441 507 28,000  Level FlightAware ADS-B (YPLB)
03:38AM -31.9990 155.1050 225° Southwest 441 507 28,100  Climbing Aus ATC (RADAR)
03:40AM -32.1323 154.9470 225° Southwest 441 507 28,000 -60 Descending FlightAware ADS-B (YPLB)
03:40AM -32.1751 154.8965 225° Southwest 441 507 28,000  Level FlightAware ADS-B (YPLB)
03:41AM -32.2205 154.8427 225° Southwest 440 506 28,000 60 Level FlightAware ADS-B (YPLB)
03:42AM -32.2866 154.7644 225° Southwest 440 506 28,100  Climbing Aus ATC (RADAR)
03:42AM -32.3452 154.6943 225° Southwest 441 507 28,000 -60 Descending FlightAware ADS-B (YPLB)
03:43AM -32.4314 154.5911 225° Southwest 441 507 28,000  Level FlightAware ADS-B (YPLB)
03:44AM -32.4871 154.5251 225° Southwest 442 509 28,000 60 Level FlightAware ADS-B (YPLB)
03:45AM -32.5592 154.4385 225° Southwest 440 506 28,100  Climbing Aus ATC (RADAR)
03:45AM -32.6062 154.3818 225° Southwest 444 511 28,000 -120 Descending FlightAware ADS-B (YPLB)
03:46AM -32.6656 154.3109 225° Southwest 447 514 28,000  Level FlightAware ADS-B (YPLB)
03:47AM -32.7109 154.2571 225° Southwest 448 516 28,000  Level FlightAware ADS-B (YPLB)
03:47AM -32.7630 154.1950 225° Southwest 449 517 28,000  Level FlightAware ADS-B (YPLB)
03:48AM -32.8109 154.1378 225° Southwest 449 517 28,000  Level FlightAware ADS-B (YPLB)
03:48AM -32.8549 154.0846 225° Southwest 449 517 28,000  Level FlightAware ADS-B (YPLB)
03:49AM -32.8993 154.0297 226° Southwest 449 517 28,000  Level FlightAware ADS-B (YPLB)
03:49AM -32.9439 153.9747 225° Southwest 449 517 28,000  Level FlightAware ADS-B (YPLB)
03:50AM -32.9964 153.9112 225° Southwest 450 518 28,000  Level FlightAware ADS-B (YPLB)
03:50AM -33.0441 153.8579 216° Southwest 448 516 28,000  Level FlightAware ADS-B (YPLB)
03:51AM -33.0642 153.8448 205° Southwest 449 517 28,000  Level FlightAware ADS-B (YPLB)
03:51AM -33.0847 153.8344 202° Southwest 450 518 28,000  Level FlightAware ADS-B (YPLB)
03:51AM -33.1396 153.8076 202° Southwest 451 519 28,000  Level FlightAware ADS-B (YPLB)
03:52AM -33.2018 153.7773 202° Southwest 453 521 28,000  Level FlightAware ADS-B (YRPA)
03:52AM -33.2740 153.7422 202° Southwest 453 521 28,000  Level FlightAware ADS-B (YPLB)
03:53AM -33.3366 153.7117 202° Southwest 454 522 28,000  Level FlightAware ADS-B (YPLB)
03:54AM -33.4306 153.6659 202° Southwest 454 522 28,000  Level FlightAware ADS-B (YPLB)
03:54AM -33.4921 153.6362 201° Southwest 455 524 28,000  Level FlightAware ADS-B (YPLB)
03:55AM -33.5696 153.5992 201° Southwest 456 525 28,000  Level FlightAware ADS-B (YPLB)
03:55AM -33.6294 153.5694 206° Southwest 455 524 28,000  Level FlightAware ADS-B (YPLB)
03:56AM -33.6609 153.5408 225° Southwest 456 525 28,000  Level FlightAware ADS-B (YPLB)
03:56AM -33.7110 153.4583 240° Southwest 455 524 28,000  Level FlightAware ADS-B (YPLB)
03:57AM -33.7376 153.3887 249° West 457 526 28,000  Level FlightAware ADS-B (YPLB)
03:58AM -33.7624 153.2892 254° West 458 527 28,000  Level FlightAware ADS-B (YPLB)
03:58AM -33.7722 153.2449 255° West 458 527 28,000  Level FlightAware ADS-B (YPLB)
03:58AM -33.7883 153.1712 255° West 458 527 28,000  Level FlightAware ADS-B (YPLB)
03:59AM -33.8057 153.0944 255° West 459 528 28,000  Level FlightAware ADS-B (YRPA)
04:00AM -33.8274 152.9992 254° West 458 527 28,000  Level FlightAware ADS-B (YPLB)
04:00AM -33.8431 152.9289 255° West 458 527 28,000  Level FlightAware ADS-B (YPLB)
04:01AM -33.8599 152.8546 254° West 458 527 28,000 -240 Level FlightAware ADS-B (YPLB)
04:01AM -33.8770 152.7784 254° West 445 512 27,800 -840 Descending FlightAware ADS-B (YPLB)
04:02AM -33.8966 152.6912 254° West 409 471 27,100 -1,380 Descending FlightAware ADS-B (YPLB)
04:02AM -33.9115 152.6240 254° West 392 451 26,200 -1,980 Descending FlightAware ADS-B (YPLB)
04:03AM -33.9235 152.5699 255° West 383 441 25,200 -2,220 Descending FlightAware ADS-B (YSSY / SYD)
04:03AM -33.9432 152.4806 255° West 377 434 23,700 -2,340 Descending FlightAware ADS-B (YPLB)
04:04AM -33.9563 152.4192 255° West 380 437 22,400 -2,400 Descending FlightAware ADS-B (YPLB)
04:04AM -33.9676 152.3645 256° West 377 434 21,300 -2,100 Descending FlightAware ADS-B (YSBK / BWU)
04:05AM -33.9728 152.3393 255° West 376 433 21,000 -2,040 Descending FlightAware ADS-B (YPLB)
04:05AM -33.9818 152.2977 256° West 377 434 20,300 -2,040 Descending FlightAware ADS-B (YSSY / SYD)
04:05AM -33.9952 152.2366 254° West 367 422 19,300 -2,220 Descending FlightAware ADS-B (YPLB)
04:06AM -34.0150 152.1572 253° West 377 434 17,700 -2,640 Descending FlightAware ADS-B (YPLB)
04:07AM -34.0317 152.0718 263° West 395 455 15,800 -3,000 Descending FlightAware ADS-B (YPLB)
04:07AM -34.0308 152.0173 277° West 393 452 14,500 -2,880 Descending FlightAware ADS-B (YRPA)
04:08AM -34.0227 151.9437 277° West 383 441 13,000 -2,340 Descending FlightAware ADS-B (YPLB)
04:08AM -34.0160 151.8822 277° West 371 427 12,000 -1,860 Descending FlightAware ADS-B (YPLB)
04:09AM -34.0081 151.8034 276° West 375 432 10,800 -1,740 Descending FlightAware ADS-B (YSBK / BWU)
04:09AM -34.0037 151.7579 276° West 372 428 10,300 -1,440 Descending FlightAware ADS-B (YPLB)
04:10AM -33.9977 151.6993 277° West 367 422 9,600 -1,440 Descending FlightAware ADS-B (YSBK / BWU)
04:10AM -33.9936 151.6589 277° West 366 421 9,100 -1,500 Descending FlightAware ADS-B (YSBK / BWU)
04:10AM -33.9900 151.6256 277° West 364 419 8,700 -1,680 Descending FlightAware ADS-B (YRPA)
04:11AM -33.9883 151.6094 276° West 367 422 8,500 -1,320 Descending FlightAware ADS-B (YRAY)
04:11AM -33.9889 151.6154 277° West 364 419 8,200 -900 Descending FlightAware ADS-B (YSBK / BWU)
04:11AM -33.9827 151.5554 276° West 363 418 8,100 -960 Descending FlightAware ADS-B (YPLB)
04:11AM -33.9809 151.5373 276° West 363 418 7,900 -1,200 Descending FlightAware ADS-B (YPLB)
04:11AM -33.9788 151.5156 276° West 363 418 7,700 -780 Descending FlightAware ADS-B (YPLB)
04:12AM -33.9755 151.4836 277° West 362 417 7,500 -600 Descending FlightAware ADS-B (YSBK / BWU)
04:12AM -33.9752 151.4386 260° West 352 405 7,300 -720 Descending FlightAware ADS-B (YSBK / BWU)
04:12AM -33.9780 151.4246 253° West 343 395 7,200 -1,500 Descending FlightAware ADS-B (YRAY)
04:12AM -33.9817 151.4129 247° West 338 389 7,000 -1,740 Descending FlightAware ADS-B (YSSY / SYD)
04:12AM -33.9871 151.4015 238° Southwest 333 383 6,800 -1,860 Descending FlightAware ADS-B (YSBK / BWU)
04:12AM -33.9915 151.3943 229° Southwest 330 380 6,600 -2,280 Descending FlightAware ADS-B (YRAY)
04:12AM -33.9961 151.3882 230° Southwest 331 381 6,500 -1,020 Descending FlightAware ADS-B (YRAY)
04:12AM -33.9994 151.3844 224° Southwest 328 377 6,500 -1,500 Level FlightAware ADS-B (YPLB)
04:13AM -34.0068 151.3774 214° Southwest 324 373 6,200 -1,500 Descending FlightAware ADS-B (YSBK / BWU)
04:13AM -34.0188 151.3692 206° Southwest 320 368 6,100 -1,080 Descending FlightAware ADS-B (YRAY)
04:13AM -34.0327 151.3637 195° South 303 349 5,900 -720 Descending FlightAware ADS-B (YRAY)
04:13AM -34.0533 151.3584 192° South 298 343 5,800 -600 Descending FlightAware ADS-B (YSSY / SYD)
04:13AM -34.0750 151.3531 191° South 283 326 5,600 -600 Descending FlightAware ADS-B (YRPA)
04:14AM -34.0663 151.3552 191° South 290 334 5,600 -780 Level FlightAware ADS-B (YPLB)
04:14AM -34.0864 151.3504 192° South 268 308 5,500 -720 Descending FlightAware ADS-B (YRAY)
04:14AM -34.1011 151.3468 191° South 266 306 5,400 -840 Descending FlightAware ADS-B (YPLB)
04:14AM -34.1134 151.3438 195° South 252 290 5,200 -1,200 Descending FlightAware ADS-B (YRAY)
04:14AM -34.1255 151.3402 199° South 259 298 5,000 -1,200 Descending FlightAware ADS-B (YSSY / SYD)
04:14AM -34.1356 151.3345 210° Southwest 257 296 4,800 -1,320 Descending FlightAware ADS-B (YSBK / BWU)
04:14AM -34.1443 151.3259 226° Southwest 258 297 4,600 -1,800 Descending FlightAware ADS-B (YSBK / BWU)
04:15AM -34.1508 151.3154 237° Southwest 260 299 4,200 -1,800 Descending FlightAware ADS-B (YSBK / BWU)
04:15AM -34.1560 151.3003 253° West 262 302 4,000 -1,200 Descending FlightAware ADS-B (YSBK / BWU)
04:15AM -34.1577 151.2908 263° West 262 302 3,800 -1,200 Descending FlightAware ADS-B (YSBK / BWU)
04:15AM -34.1584 151.2769 275° West 257 296 3,600 -840 Descending FlightAware ADS-B (YSSY / SYD)
04:15AM -34.1562 151.2596 285° West 252 290 3,500  Descending FlightAware ADS-B (YSBK / BWU)
04:15AM -34.1510 151.2464 300° West 238 274 3,600 300 Climbing FlightAware ADS-B (YSBK / BWU)
04:16AM -34.1445 151.2371 315° West 222 255 3,600 -840 Level FlightAware ADS-B (YSBK / BWU)
04:16AM -34.1357 151.2282 334° Northwest 213 245 3,200 -1,440 Descending FlightAware ADS-B (YSBK / BWU)
04:16AM -34.1261 151.2225 348° North 217 250 2,900 -1,440 Descending FlightAware ADS-B (YSBK / BWU)
04:16AM -34.0986 151.2149 349° North 215 247 2,500 -1,200 Descending FlightAware ADS-B (YSBK / BWU)
04:17AM -34.0801 151.2103 348° North 213 245 2,100 -1,080 Descending FlightAware ADS-B (YSBK / BWU)
04:17AM -34.0595 151.2051 348° North 210 242 1,800 -1,080 Descending FlightAware ADS-B (YSBK / BWU)
04:17AM -34.0435 151.2009 348° North 194 223 1,400 -900 Descending FlightAware ADS-B (YSBK / BWU)
04:18AM -34.0102 151.1922 348° North 151 174 900 -900 Descending FlightAware ADS-B (YSBK / BWU)
04:18AM -34.0036 151.1906 348° North 137 158 700 -900 Descending FlightAware ADS-B (YRAY)
04:19AM -33.9912 151.1877 348° North 143 165 500 -720 Descending FlightAware ADS-B (YRPA)
04:19AM -33.9854 151.1861 347° North 145 167 300 -780 Descending FlightAware ADS-B (YSBK / BWU)
04:19AM -33.9579 151.1790 348° North 137 158 -540 Descending FlightAware ADS-B (YRAY)